Terminal Aerodrome Forecast
Issued by NWS

Current Version | Previous Version | Text Only | Print | Product List | Glossary On
Versions: 1 2 3 4 5 6 7 8 9 10 11 12 13 14 15 16 17 18
000
FTUS42 KKEY 261400 AAA
TAFMTH
TAF AMD
KMTH 261413Z 2614/2712 29010G18KT P6SM VCSH SCT010 BKN040
     FM261530 34012G20KT P6SM BKN010
     FM261900 34012G20KT P6SM SCT015 BKN030
     FM270000 01014G20KT P6SM SCT050=

USA.gov is the U.S. government's official web portal to all federal, state and local government web resources and services.